KCPR/CPR METAR and TAF weather

Enter ICAO airport designator
Station Type Date Time Source
KCPR METAR 2020/07/11 18:53 UTC NOAA

KCPR 111853Z VRB06G18KT 10SM CLR 32/M01 A3024 RMK AO2 SLP167 T03171006


Station Type Date Time Source
KCPR Decoded METAR 2020/07/11 18:53 UTC NOAA

NATRONA COUNTY INTERNATIONAL AIRPORT , WY, United States (KCPR) 42-54N 106-28W 1621M
Jul 11, 2020 - 02:53 PM EDT / 2020.07.11 1853 UTC
Wind: Variable at 7 MPH (6 KT) gusting to 21 MPH (18 KT):0
Visibility: 10 mile(s):0
Sky conditions: clear
Temperature: 89.1 F (31.7 C)
Dew Point: 30.9 F (-0.6 C)
Relative Humidity: 12%
Pressure (altimeter): 30.24 in. Hg (1024 hPa)
ob: KCPR 111853Z VRB06G18KT 10SM CLR 32/M01 A3024 RMK AO2 SLP167 T03171006
cycle: 19

Station Type Date Time Source
KCPR TAF 2020/07/11 18:24 UTC NOAA

TAF KCPR 111722Z 1118/1218 24009KT P6SM SKC
FM112000 29011KT P6SM SCT250
FM120100 03007KT P6SM SCT250
FM120600 VRB05KT P6SM SKC
FM121600 24010KT P6SM SKC

Example: see airport list